Moyers, West Virginia
Current Conditions -  °F | °C
As of 12:15 PM on Thursday 30 Oct 2014 (Local Time) from KVBW Reporting Station
Overcast Overcast  
Wind Chill: 48°   Ceiling: 4600
Heat Index: 49°   Visibility: 10mi
Dew Point: 37°   Wind: 5mph
Humidity: 61%   Direction: 10°N
Pressure: 30.09"   Gusts: NA
Location:  38.5003°N, 79.3229°W
Report Text: KVBW 301615Z AUTO 01004KT 10SM OVC046 10/03 A3009 RMK AO2 T00970025
Loading
Personal Weather Stations






























Interactive Weather Map
Tropical Storm Tracking
New forecast layout! Learn more

10-Day Weather Forecast

Advertisements
Track Severe Weather on mobile